Time;durP1;ratioP1;P1;durP2;ratioP2;P2;SDS_P1;SDS_P2;PMS_P1;PMS_P2;Temp;Humidity;BMP_temperature;BMP_pressure;BME280_temperature;BME280_humidity;BME280_pressure;Samples;Min_cycle;Max_cycle;Signal;HPM_P1;HPM_P2
2022/09/09 00:02:21;;;;;;;17.83;9.43;;;15.20;99.90;;;;;;4981768;28;20035;-66
2022/09/09 00:04:52;;;;;;;16.50;10.55;;;15.20;99.90;;;;;;4959556;28;20537;-67
2022/09/09 00:07:28;;;;;;;17.67;10.65;;;15.10;99.90;;;;;;4988882;28;20486;-66
2022/09/09 00:10:16;;;;;;;16.50;10.10;;;15.10;99.90;;;;;;4971246;28;20121;-68
2022/09/09 00:12:57;;;;;;;16.30;9.80;;;15.10;99.90;;;;;;4982233;28;20050;-68
2022/09/09 00:15:26;;;;;;;26.70;11.85;;;15.00;99.90;;;;;;4986244;28;20042;-67
2022/09/09 00:18:17;;;;;;;20.50;11.60;;;15.00;99.90;;;;;;4986310;28;20057;-67
2022/09/09 00:20:57;;;;;;;17.27;11.52;;;15.00;99.90;;;;;;4984467;28;20571;-68
2022/09/09 00:23:33;;;;;;;15.00;10.60;;;14.90;99.90;;;;;;4983999;28;20046;-67
2022/09/09 00:26:19;;;;;;;19.23;11.45;;;14.90;99.90;;;;;;4978364;28;20499;-67
2022/09/09 00:28:55;;;;;;;27.15;11.98;;;14.90;99.90;;;;;;4979108;28;20841;-67
2022/09/09 00:31:26;;;;;;;20.55;11.48;;;14.90;99.90;;;;;;4988587;28;20470;-68
2022/09/09 00:33:53;;;;;;;16.27;11.52;;;14.90;99.90;;;;;;4994991;28;20046;-67
2022/09/09 00:36:25;;;;;;;19.13;12.15;;;14.90;99.90;;;;;;4994284;28;20048;-66
2022/09/09 00:39:00;;;;;;;14.95;11.23;;;14.70;99.90;;;;;;4987136;28;20086;-67
2022/09/09 00:42:09;;;;;;;19.48;11.98;;;14.80;99.90;;;;;;4982356;28;20398;-66
2022/09/09 00:44:37;;;;;;;14.77;10.18;;;14.80;99.90;;;;;;4979290;28;20046;-67
2022/09/09 00:47:38;;;;;;;18.02;11.38;;;14.80;99.90;;;;;;4981162;28;20042;-66
2022/09/09 00:50:29;;;;;;;14.68;10.90;;;14.80;99.90;;;;;;4985136;28;20062;-67
2022/09/09 00:53:17;;;;;;;17.42;10.32;;;14.70;99.90;;;;;;4984489;28;20550;-67
2022/09/09 00:56:05;;;;;;;14.88;10.38;;;14.70;99.90;;;;;;4983678;28;20121;-66
2022/09/09 00:58:31;;;;;;;30.45;11.35;;;14.70;99.90;;;;;;4974990;28;20501;-66
2022/09/09 01:01:11;;;;;;;18.95;11.63;;;14.70;99.90;;;;;;4985732;28;20491;-67
2022/09/09 01:03:53;;;;;;;14.65;8.95;;;14.70;99.90;;;;;;4983585;28;20522;-68
2022/09/09 01:06:28;;;;;;;17.65;8.85;;;14.70;99.90;;;;;;4978449;28;20392;-66
2022/09/09 01:09:18;;;;;;;11.13;8.95;;;14.70;99.90;;;;;;4989032;28;20042;-66
2022/09/09 01:12:10;;;;;;;16.77;9.07;;;14.60;99.90;;;;;;4974503;28;20538;-68
2022/09/09 01:14:36;;;;;;;14.45;8.43;;;14.60;99.90;;;;;;4981767;28;20035;-67
2022/09/09 01:17:23;;;;;;;18.23;8.73;;;14.60;99.90;;;;;;4978893;28;20129;-67
2022/09/09 01:20:12;;;;;;;18.00;8.68;;;14.60;99.90;;;;;;4984688;28;20084;-66
2022/09/09 01:22:57;;;;;;;14.15;8.18;;;14.50;99.90;;;;;;4971796;28;20051;-67
2022/09/09 01:25:43;;;;;;;19.33;9.02;;;14.50;99.90;;;;;;4981597;28;20045;-66
2022/09/09 01:28:12;;;;;;;22.42;9.50;;;14.50;99.90;;;;;;4996312;28;20048;-67
2022/09/09 01:30:41;;;;;;;13.38;8.07;;;14.50;99.90;;;;;;4984532;28;20043;-67
2022/09/09 01:33:14;;;;;;;14.95;8.65;;;14.50;99.90;;;;;;4991264;28;20039;-67
2022/09/09 01:35:50;;;;;;;11.43;8.07;;;14.50;99.90;;;;;;5093776;22;20405;-67
2022/09/09 01:38:17;;;;;;;14.45;8.80;;;14.40;99.90;;;;;;5004251;28;20077;-66
2022/09/09 01:40:43;;;;;;;18.42;8.88;;;14.40;99.90;;;;;;5005407;28;20034;-67
2022/09/09 01:43:09;;;;;;;12.98;8.63;;;14.40;99.90;;;;;;5007998;28;20545;-67
2022/09/09 01:45:36;;;;;;;16.02;9.45;;;14.50;99.90;;;;;;5007657;28;20050;-66
2022/09/09 01:48:02;;;;;;;11.48;8.00;;;14.40;99.90;;;;;;4989221;28;20520;-68
2022/09/09 01:50:28;;;;;;;15.52;8.95;;;14.40;99.90;;;;;;5011344;28;20076;-66
2022/09/09 01:52:58;;;;;;;14.45;8.43;;;14.40;99.90;;;;;;5005114;28;20085;-67
2022/09/09 01:55:30;;;;;;;18.75;9.13;;;14.40;99.90;;;;;;5008209;28;20042;-67
2022/09/09 01:58:25;;;;;;;12.38;8.27;;;14.40;99.90;;;;;;4994125;28;20420;-66
2022/09/09 02:01:00;;;;;;;14.25;8.50;;;14.40;99.90;;;;;;5008322;28;20136;-67
2022/09/09 02:03:28;;;;;;;16.80;9.20;;;14.40;99.90;;;;;;5010925;28;20057;-67
2022/09/09 02:05:56;;;;;;;;;;;14.40;99.90;;;;;;5005026;28;20039;-66
2022/09/09 02:08:36;;;;;;;17.33;9.18;;;14.40;99.90;;;;;;5008005;28;20380;-67
2022/09/09 02:11:08;;;;;;;16.60;9.00;;;14.40;99.90;;;;;;4994169;28;20493;-67
2022/09/09 02:13:37;;;;;;;16.38;9.38;;;14.40;99.90;;;;;;5010693;28;20042;-67
2022/09/09 02:16:22;;;;;;;14.43;9.73;;;14.40;99.90;;;;;;5007095;28;20111;-67
2022/09/09 02:18:55;;;;;;;19.27;10.95;;;14.40;99.90;;;;;;5007957;28;20042;-66
2022/09/09 02:21:23;;;;;;;18.65;10.52;;;14.40;99.90;;;;;;5009923;28;20057;-67
2022/09/09 02:23:52;;;;;;;18.00;10.43;;;14.50;99.90;;;;;;5006218;28;20088;-66
2022/09/09 02:26:21;;;;;;;17.40;11.43;;;14.50;99.90;;;;;;5002034;28;20042;-67
2022/09/09 02:28:52;;;;;;;18.95;11.65;;;14.50;99.90;;;;;;5009935;28;20046;-67
2022/09/09 02:31:21;;;;;;;18.75;12.13;;;14.40;99.90;;;;;;5005951;28;20734;-67
2022/09/09 02:33:55;;;;;;;19.05;12.25;;;14.40;99.90;;;;;;5006728;28;20129;-66
2022/09/09 02:36:23;;;;;;;15.27;11.35;;;14.50;99.90;;;;;;4989394;28;20054;-67
2022/09/09 02:38:52;;;;;;;13.93;11.10;;;14.50;99.90;;;;;;5000264;28;20045;-67
2022/09/09 02:41:25;;;;;;;22.83;11.65;;;14.50;99.90;;;;;;5009137;28;20038;-66
2022/09/09 02:43:51;;;;;;;22.05;11.80;;;14.40;99.90;;;;;;5005112;28;20057;-66
2022/09/09 02:46:38;;;;;;;19.33;12.95;;;14.50;99.90;;;;;;5007613;28;20041;-67
2022/09/09 02:49:11;;;;;;;21.88;12.60;;;14.50;99.90;;;;;;5008593;28;20057;-66
2022/09/09 02:52:07;;;;;;;16.30;11.98;;;14.50;99.90;;;;;;5005513;28;20053;-67
2022/09/09 02:54:35;;;;;;;20.40;12.07;;;14.50;99.90;;;;;;4985152;28;20061;-66
2022/09/09 02:57:27;;;;;;;23.08;12.18;;;14.50;99.90;;;;;;5004659;28;20780;-68
2022/09/09 02:59:56;;;;;;;16.48;11.48;;;14.50;99.90;;;;;;5006655;28;20045;-69
2022/09/09 03:02:22;;;;;;;21.55;11.32;;;14.50;99.90;;;;;;5003815;28;20477;-68
2022/09/09 03:04:51;;;;;;;17.75;11.43;;;14.50;99.90;;;;;;5008896;28;20065;-67
2022/09/09 03:07:18;;;;;;;15.77;11.07;;;14.50;99.90;;;;;;4997162;28;20053;-67
2022/09/09 03:09:44;;;;;;;20.27;10.85;;;14.50;99.90;;;;;;4993314;28;20046;-68
2022/09/09 03:12:11;;;;;;;28.73;11.68;;;14.60;99.90;;;;;;5005318;28;20056;-65
2022/09/09 03:14:37;;;;;;;18.90;10.60;;;14.50;99.90;;;;;;5006212;28;20038;-66
2022/09/09 03:17:04;;;;;;;19.80;10.75;;;14.50;99.90;;;;;;5005212;28;20054;-66
2022/09/09 03:19:29;;;;;;;18.00;10.15;;;14.60;99.90;;;;;;5008445;28;20092;-66
2022/09/09 03:21:55;;;;;;;14.55;9.90;;;14.50;99.90;;;;;;4992535;28;20033;-67
2022/09/09 03:24:22;;;;;;;15.90;10.27;;;14.60;99.90;;;;;;5008032;28;20033;-67
2022/09/09 03:26:48;;;;;;;16.02;9.25;;;14.60;99.90;;;;;;4989343;28;20085;-66
2022/09/09 03:29:14;;;;;;;18.25;9.40;;;14.60;99.90;;;;;;5009137;28;20494;-66
2022/09/09 03:31:40;;;;;;;12.38;8.55;;;14.60;99.90;;;;;;5006684;28;20048;-66
2022/09/09 03:34:06;;;;;;;17.70;8.88;;;14.60;99.90;;;;;;5005215;28;20119;-66
2022/09/09 03:36:32;;;;;;;15.68;8.18;;;14.60;99.90;;;;;;5009116;28;20088;-66
2022/09/09 03:38:59;;;;;;;13.98;8.27;;;14.60;99.90;;;;;;4990121;28;20462;-66
2022/09/09 03:41:26;;;;;;;11.77;8.57;;;14.60;99.90;;;;;;4992360;28;20527;-67
2022/09/09 03:43:52;;;;;;;17.10;9.00;;;14.70;99.90;;;;;;5005282;28;20054;-67
2022/09/09 03:46:22;;;;;;;13.25;7.65;;;14.60;99.90;;;;;;5003064;28;20042;-67
2022/09/09 03:48:48;;;;;;;13.88;8.10;;;14.60;99.90;;;;;;5007728;28;20126;-66
2022/09/09 03:51:14;;;;;;;14.38;7.45;;;14.60;99.90;;;;;;5006631;28;20087;-66
2022/09/09 03:53:40;;;;;;;11.85;6.60;;;14.60;99.90;;;;;;5009034;28;20042;-66
2022/09/09 03:56:06;;;;;;;12.65;6.95;;;14.70;99.90;;;;;;5007194;28;20040;-66
2022/09/09 03:58:36;;;;;;;16.65;7.45;;;14.70;99.90;;;;;;5010119;28;20052;-66
2022/09/09 04:01:13;;;;;;;13.35;5.90;;;14.70;99.90;;;;;;5008555;28;20034;-67
2022/09/09 04:03:39;;;;;;;15.10;6.00;;;14.70;99.90;;;;;;5006430;28;20046;-67
2022/09/09 04:06:07;;;;;;;13.18;5.50;;;14.70;99.90;;;;;;5006334;28;20393;-67
2022/09/09 04:08:33;;;;;;;11.45;5.15;;;14.70;99.90;;;;;;4976713;28;20050;-66
2022/09/09 04:11:02;;;;;;;10.00;5.70;;;14.80;99.90;;;;;;4991272;28;20401;-67
2022/09/09 04:13:28;;;;;;;12.85;4.60;;;14.80;99.90;;;;;;5007190;28;20073;-67
2022/09/09 04:15:55;;;;;;;11.68;4.60;;;14.80;99.90;;;;;;5010958;28;20041;-67
2022/09/09 04:18:22;;;;;;;12.60;4.70;;;14.80;99.90;;;;;;5005920;28;20035;-68
2022/09/09 04:20:48;;;;;;;9.52;4.13;;;14.80;99.90;;;;;;4987249;28;20061;-67
2022/09/09 04:23:15;;;;;;;7.38;3.75;;;14.80;99.90;;;;;;4991064;28;20065;-67
2022/09/09 04:26:08;;;;;;;8.07;3.70;;;14.80;99.90;;;;;;5004737;28;20034;-67
2022/09/09 04:28:43;;;;;;;8.18;3.83;;;14.80;99.90;;;;;;5003467;28;20432;-67
2022/09/09 04:31:19;;;;;;;11.65;4.10;;;14.90;99.90;;;;;;5008204;28;20177;-68
2022/09/09 04:33:46;;;;;;;9.95;4.55;;;14.90;99.90;;;;;;5003484;28;20066;-68
2022/09/09 04:36:12;;;;;;;9.25;4.15;;;14.90;99.90;;;;;;5010527;28;20128;-66
2022/09/09 04:38:38;;;;;;;8.23;4.00;;;14.90;99.90;;;;;;5001088;28;20176;-67
2022/09/09 04:41:04;;;;;;;7.65;4.07;;;14.90;99.90;;;;;;5006483;28;20131;-66
2022/09/09 04:43:30;;;;;;;11.88;4.35;;;14.90;99.90;;;;;;5008154;28;20053;-67
2022/09/09 04:45:56;;;;;;;12.18;4.40;;;14.90;99.90;;;;;;5005828;28;20052;-66
2022/09/09 04:48:22;;;;;;;12.43;4.10;;;14.80;99.90;;;;;;5005343;28;20140;-66
2022/09/09 04:50:57;;;;;;;11.10;4.43;;;14.80;99.90;;;;;;5004510;28;20042;-66
2022/09/09 04:53:25;;;;;;;9.45;4.55;;;14.90;99.90;;;;;;5007522;28;20046;-64
2022/09/09 04:55:53;;;;;;;11.88;4.35;;;14.90;99.90;;;;;;5002111;28;20046;-65
2022/09/09 04:58:18;;;;;;;13.82;5.18;;;14.90;99.90;;;;;;5007385;28;20425;-66
2022/09/09 05:00:44;;;;;;;11.07;4.90;;;14.90;99.90;;;;;;5008086;28;20045;-66
2022/09/09 05:03:09;;;;;;;9.57;4.47;;;14.90;99.90;;;;;;5002312;28;20101;-66
2022/09/09 05:05:35;;;;;;;7.93;4.63;;;14.90;99.90;;;;;;5005158;28;20034;-66
2022/09/09 05:08:06;;;;;;;10.73;5.43;;;14.90;99.90;;;;;;4997345;28;20510;-66
2022/09/09 05:10:33;;;;;;;10.70;5.32;;;14.90;99.90;;;;;;5011122;28;20053;-65
2022/09/09 05:12:59;;;;;;;15.27;6.05;;;14.90;99.90;;;;;;5008844;28;20121;-65
2022/09/09 05:15:25;;;;;;;11.77;6.47;;;14.80;99.90;;;;;;5010747;28;20046;-66
2022/09/09 05:17:52;;;;;;;13.90;6.60;;;14.80;99.90;;;;;;5010539;28;20054;-65
2022/09/09 05:20:18;;;;;;;15.00;7.20;;;14.90;99.90;;;;;;5003600;28;20759;-65
2022/09/09 05:22:44;;;;;;;14.50;6.90;;;14.80;99.90;;;;;;5011911;28;20533;-67
2022/09/09 05:25:10;;;;;;;13.60;7.30;;;14.80;99.90;;;;;;5004953;28;20068;-66
2022/09/09 05:27:35;;;;;;;13.38;7.13;;;14.80;99.90;;;;;;4991036;28;20094;-65
2022/09/09 05:30:01;;;;;;;18.65;7.63;;;14.80;99.90;;;;;;5004459;28;20030;-65
2022/09/09 05:32:27;;;;;;;20.48;7.40;;;14.80;99.90;;;;;;5011293;28;20080;-65
2022/09/09 05:34:53;;;;;;;15.40;8.27;;;14.80;99.90;;;;;;5010826;28;20054;-66
2022/09/09 05:37:19;;;;;;;11.63;7.88;;;14.80;99.90;;;;;;5024791;28;20706;-65
2022/09/09 05:39:45;;;;;;;16.67;8.20;;;14.80;99.90;;;;;;5023703;28;20128;-65
2022/09/09 05:42:10;;;;;;;12.75;8.82;;;14.80;99.90;;;;;;5009497;28;20060;-65
2022/09/09 05:44:37;;;;;;;17.63;8.43;;;14.70;99.90;;;;;;5010015;28;20030;-64
2022/09/09 05:47:03;;;;;;;15.63;9.13;;;14.70;99.90;;;;;;5012233;28;20038;-65
2022/09/09 05:49:28;;;;;;;14.73;8.65;;;14.70;99.90;;;;;;5005871;28;20057;-65
2022/09/09 05:51:54;;;;;;;13.98;8.60;;;14.80;99.90;;;;;;4993506;28;20033;-66
2022/09/09 05:54:20;;;;;;;12.48;8.82;;;14.80;99.90;;;;;;5007907;28;20469;-68
2022/09/09 05:56:46;;;;;;;15.90;9.35;;;14.80;99.90;;;;;;5012409;28;20053;-67
2022/09/09 05:59:12;;;;;;;18.35;10.20;;;14.80;99.90;;;;;;5009831;28;20566;-66
2022/09/09 06:05:20;;;;;;;12.80;9.27;;;14.80;99.90;;;;;;4986038;28;20189;-66
2022/09/09 06:07:46;;;;;;;17.02;10.57;;;14.80;99.90;;;;;;4986448;28;20132;-66
2022/09/09 06:10:15;;;;;;;14.35;9.93;;;14.80;99.90;;;;;;4990335;28;20046;-66
2022/09/09 06:12:40;;;;;;;25.45;9.45;;;14.90;99.90;;;;;;4974894;28;20047;-66
2022/09/09 06:15:07;;;;;;;18.23;10.63;;;14.90;99.90;;;;;;4987982;28;20046;-66
2022/09/09 06:17:32;;;;;;;17.25;10.20;;;14.90;99.90;;;;;;4973551;28;20046;-66
2022/09/09 06:19:59;;;;;;;14.15;9.60;;;14.90;99.90;;;;;;4972316;28;20481;-67
2022/09/09 06:22:24;;;;;;;13.20;9.40;;;14.90;99.90;;;;;;4986760;28;20089;-66
2022/09/09 06:24:50;;;;;;;19.88;10.38;;;14.90;99.90;;;;;;4990825;28;20526;-63
2022/09/09 06:27:16;;;;;;;22.98;9.85;;;15.00;99.90;;;;;;4990674;28;20054;-65
2022/09/09 06:29:42;;;;;;;13.95;9.65;;;15.00;99.90;;;;;;4969913;28;20128;-65
2022/09/09 06:32:08;;;;;;;16.00;9.30;;;15.00;99.90;;;;;;4986708;28;20034;-66
2022/09/09 06:34:35;;;;;;;14.23;9.20;;;15.00;99.90;;;;;;4987149;28;20096;-65
2022/09/09 06:37:01;;;;;;;12.02;9.52;;;15.00;99.90;;;;;;4994386;28;20062;-66
2022/09/09 06:39:26;;;;;;;16.15;9.10;;;15.00;99.90;;;;;;5010939;28;20041;-65
2022/09/09 06:41:53;;;;;;;13.45;9.07;;;15.10;99.90;;;;;;5004050;28;20092;-65
2022/09/09 06:44:19;;;;;;;12.10;8.70;;;15.10;99.90;;;;;;5002973;28;20112;-65
2022/09/09 06:46:47;;;;;;;13.75;8.93;;;15.10;99.90;;;;;;5012049;28;20033;-66
2022/09/09 06:49:13;;;;;;;15.05;8.95;;;15.20;99.90;;;;;;5007936;28;20042;-66
2022/09/09 06:51:46;;;;;;;11.80;8.23;;;15.10;99.90;;;;;;4999490;28;20064;-65
2022/09/09 06:54:12;;;;;;;271.10;29.10;;;15.30;99.90;;;;;;4992999;28;20121;-65
2022/09/09 06:56:42;;;;;;;172.25;20.88;;;15.20;99.90;;;;;;5004329;28;20060;-67
2022/09/09 06:59:09;;;;;;;25.95;8.65;;;15.30;99.90;;;;;;5004553;28;20050;-66
2022/09/09 07:01:37;;;;;;;14.20;8.07;;;15.30;99.90;;;;;;5005867;28;20064;-67
2022/09/09 07:04:04;;;;;;;15.73;8.88;;;15.40;99.90;;;;;;5007943;28;20042;-66
2022/09/09 07:06:32;;;;;;;15.83;7.97;;;15.40;99.90;;;;;;4990777;28;20068;-66
2022/09/09 07:09:08;;;;;;;13.93;8.07;;;15.50;99.90;;;;;;4996085;28;20042;-66
2022/09/09 07:11:41;;;;;;;14.48;7.95;;;15.60;99.90;;;;;;5010187;28;20085;-67
2022/09/09 07:14:07;;;;;;;11.52;7.68;;;15.60;99.90;;;;;;5008519;28;20041;-67
2022/09/09 07:16:36;;;;;;;16.80;8.63;;;15.60;99.90;;;;;;4994475;28;20042;-67
2022/09/09 07:19:03;;;;;;;9.98;7.22;;;15.60;99.90;;;;;;5003986;28;20053;-66
2022/09/09 07:21:30;;;;;;;11.07;8.10;;;15.60;99.90;;;;;;4991709;28;20057;-66
2022/09/09 07:23:56;;;;;;;14.68;7.85;;;15.70;99.90;;;;;;5011203;28;20045;-66
2022/09/09 07:26:25;;;;;;;12.48;7.55;;;15.70;99.90;;;;;;5010523;28;20046;-65
2022/09/09 07:28:51;;;;;;;12.70;8.40;;;15.70;99.90;;;;;;4970142;28;20050;-67
2022/09/09 07:31:23;;;;;;;12.52;7.95;;;15.70;99.90;;;;;;4993188;28;20393;-65
2022/09/09 07:33:49;;;;;;;11.30;7.68;;;15.80;99.90;;;;;;5008638;28;20073;-67
2022/09/09 07:36:18;;;;;;;10.73;7.85;;;15.80;99.90;;;;;;4999314;28;20520;-67
2022/09/09 07:38:46;;;;;;;11.75;7.57;;;15.90;99.90;;;;;;5009540;28;20049;-65
2022/09/09 07:41:14;;;;;;;12.07;8.23;;;16.00;99.90;;;;;;4997534;28;20042;-66
2022/09/09 07:43:45;;;;;;;16.83;9.13;;;16.00;99.90;;;;;;5006230;28;20100;-68
2022/09/09 07:46:12;;;;;;;14.20;8.85;;;16.00;99.90;;;;;;5011759;28;20412;-66
2022/09/09 07:48:43;;;;;;;12.48;7.55;;;16.00;99.90;;;;;;5012244;28;20543;-66
2022/09/09 07:51:16;;;;;;;12.07;7.45;;;16.10;99.90;;;;;;4992058;28;20042;-67
2022/09/09 07:53:43;;;;;;;8.30;5.93;;;16.20;99.90;;;;;;4996849;28;20046;-67
2022/09/09 07:56:12;;;;;;;13.52;7.10;;;16.20;99.90;;;;;;5005162;28;20480;-66
2022/09/09 07:58:39;;;;;;;8.45;6.60;;;16.30;99.90;;;;;;5008260;28;20046;-67
2022/09/09 08:01:09;;;;;;;10.55;7.65;;;16.40;99.90;;;;;;5012207;28;20444;-68
2022/09/09 08:03:35;;;;;;;14.02;6.68;;;16.40;99.90;;;;;;5010915;28;20489;-67
2022/09/09 08:06:02;;;;;;;11.07;7.57;;;16.50;99.90;;;;;;5012824;28;20049;-67
2022/09/09 08:08:29;;;;;;;13.73;7.13;;;16.50;99.90;;;;;;5010996;28;20226;-66
2022/09/09 08:11:05;;;;;;;12.50;6.78;;;16.60;99.90;;;;;;5012559;28;20046;-67
2022/09/09 08:13:31;;;;;;;8.45;5.75;;;16.70;99.90;;;;;;5012093;28;20088;-67
2022/09/09 08:16:05;;;;;;;11.43;6.38;;;16.90;99.90;;;;;;5010283;28;20081;-67
2022/09/09 08:18:31;;;;;;;10.75;6.40;;;16.80;99.90;;;;;;5012394;28;20057;-67
2022/09/09 08:20:56;;;;;;;11.30;6.70;;;17.00;99.90;;;;;;4999188;28;20038;-68
2022/09/09 08:23:22;;;;;;;10.38;6.18;;;17.00;99.90;;;;;;4996195;28;20048;-68
2022/09/09 08:25:48;;;;;;;10.98;6.03;;;17.10;99.90;;;;;;5004213;28;20038;-66
2022/09/09 08:28:14;;;;;;;7.95;5.15;;;17.20;99.90;;;;;;5011866;28;20045;-66
2022/09/09 08:30:40;;;;;;;8.73;5.72;;;17.30;99.90;;;;;;5012284;28;20052;-66
2022/09/09 08:33:05;;;;;;;7.10;5.40;;;17.40;99.90;;;;;;4993429;28;20124;-67
2022/09/09 08:35:32;;;;;;;7.93;5.32;;;17.50;99.90;;;;;;5002844;28;20042;-68
2022/09/09 08:37:58;;;;;;;12.07;6.28;;;17.60;99.90;;;;;;4994178;28;20053;-67
2022/09/09 08:40:30;;;;;;;9.88;5.55;;;17.80;99.90;;;;;;4999331;28;20039;-66
2022/09/09 08:42:59;;;;;;;7.32;4.80;;;18.00;99.90;;;;;;4993630;28;20070;-68
2022/09/09 08:45:52;;;;;;;8.15;4.45;;;18.20;99.90;;;;;;5005946;28;20045;-68
2022/09/09 08:48:52;;;;;;;9.05;5.05;;;18.40;99.90;;;;;;4999088;28;20081;-68
2022/09/09 08:51:18;;;;;;;12.02;4.45;;;18.50;99.90;;;;;;4959708;28;20055;-67
2022/09/09 08:53:48;;;;;;;8.68;4.40;;;18.50;99.90;;;;;;4997900;28;20099;-69
2022/09/09 08:56:18;;;;;;;10.52;4.38;;;18.50;99.90;;;;;;5010356;28;20043;-67
2022/09/09 08:58:48;;;;;;;13.35;4.25;;;18.60;99.90;;;;;;5010510;28;20069;-67
2022/09/09 09:01:46;;;;;;;101.07;12.40;;;18.50;99.90;;;;;;4995639;28;20057;-67
2022/09/09 09:04:31;;;;;;;8.50;5.07;;;18.50;99.90;;;;;;4987382;28;20058;-67
2022/09/09 09:07:00;;;;;;;15.07;6.82;;;18.50;99.90;;;;;;5009847;28;20120;-67
2022/09/09 09:09:49;;;;;;;41.70;6.45;;;18.70;99.90;;;;;;5012509;28;20042;-67
2022/09/09 09:12:25;;;;;;;28.33;5.82;;;18.60;99.90;;;;;;5009235;28;20088;-67
2022/09/09 09:14:50;;;;;;;14.57;4.63;;;18.60;99.90;;;;;;5012028;28;20382;-67
2022/09/09 09:17:21;;;;;;;12.40;4.45;;;18.50;99.90;;;;;;4994780;28;20069;-68
2022/09/09 09:19:49;;;;;;;14.50;4.47;;;18.50;99.90;;;;;;4987515;28;20054;-67
2022/09/09 09:22:36;;;;;;;13.85;5.03;;;18.40;99.90;;;;;;4993218;28;20057;-68
2022/09/09 09:25:18;;;;;;;53.38;7.38;;;18.40;99.90;;;;;;5011783;28;20497;-68
2022/09/09 09:28:05;;;;;;;95.82;10.20;;;18.50;99.90;;;;;;4976459;28;20038;-68
2022/09/09 09:30:58;;;;;;;14.48;4.85;;;18.50;99.90;;;;;;5009592;28;20042;-68
2022/09/09 09:33:39;;;;;;;9.93;4.25;;;18.70;99.90;;;;;;4992200;28;20053;-69
2022/09/09 09:36:07;;;;;;;9.07;4.20;;;18.90;99.90;;;;;;4974726;28;20061;-68
2022/09/09 09:38:34;;;;;;;;;;;19.20;99.90;;;;;;5000439;28;20116;-69
2022/09/09 09:41:00;;;;;;;8.32;4.00;;;19.60;99.90;;;;;;4987995;28;19921;-69
2022/09/09 09:43:34;;;;;;;10.30;3.85;;;19.80;99.90;;;;;;4999637;28;20052;-69
2022/09/09 09:49:32;;;;;;;13.82;4.13;;;19.80;99.90;;;;;;4976388;28;20046;-70
2022/09/09 09:52:05;;;;;;;13.75;4.10;;;19.70;99.90;;;;;;4995000;28;20053;-68
2022/09/09 09:54:37;;;;;;;10.27;3.50;;;19.70;99.90;;;;;;4973044;28;20490;-69
2022/09/09 09:57:14;;;;;;;8.05;3.33;;;19.70;99.90;;;;;;4983632;28;20076;-69
2022/09/09 09:59:40;;;;;;;14.10;3.57;;;19.70;99.90;;;;;;4976159;28;20125;-69
2022/09/09 10:02:36;;;;;;;14.52;3.40;;;19.70;99.90;;;;;;4975773;28;20130;-68
2022/09/09 10:05:02;;;;;;;11.98;3.30;;;19.80;99.90;;;;;;4952382;28;20047;-69
2022/09/09 10:07:28;;;;;;;10.18;3.35;;;19.70;99.90;;;;;;4978402;28;20042;-69
2022/09/09 10:09:57;;;;;;;11.38;3.28;;;19.70;99.90;;;;;;4993889;28;20050;-68
2022/09/09 10:12:45;;;;;;;11.10;3.47;;;19.60;99.90;;;;;;4995137;28;20406;-69
2022/09/09 10:15:38;;;;;;;13.43;3.78;;;19.50;99.90;;;;;;4989300;28;20042;-69
2022/09/09 10:18:36;;;;;;;13.65;3.58;;;19.40;99.90;;;;;;4995233;28;20442;-69
2022/09/09 10:21:25;;;;;;;12.77;4.10;;;19.30;99.90;;;;;;4994008;28;20053;-69
2022/09/09 10:24:03;;;;;;;;;;;19.30;99.90;;;;;;4985323;28;20059;-69
2022/09/09 10:26:43;;;;;;;11.27;3.10;;;19.30;99.90;;;;;;4990541;28;20288;-68
2022/09/09 10:29:23;;;;;;;11.32;3.20;;;19.20;99.90;;;;;;4992354;28;20050;-70
2022/09/09 10:32:25;;;;;;;12.05;3.15;;;19.20;99.90;;;;;;4974116;28;20245;-69
2022/09/09 10:35:01;;;;;;;10.63;2.80;;;19.10;99.90;;;;;;4960970;28;20046;-68
2022/09/09 10:37:47;;;;;;;7.30;2.95;;;19.10;99.90;;;;;;4993784;28;20073;-69
2022/09/09 10:40:32;;;;;;;12.40;2.92;;;19.10;99.90;;;;;;4993230;28;20486;-69
2022/09/09 10:43:13;;;;;;;13.00;2.88;;;19.00;99.90;;;;;;4975621;28;20054;-69
2022/09/09 10:45:49;;;;;;;;;;;18.90;99.90;;;;;;4993080;28;20073;-69
2022/09/09 10:48:38;;;;;;;22.27;3.30;;;19.00;99.90;;;;;;4976985;28;20009;-70
2022/09/09 10:51:14;;;;;;;25.98;3.67;;;19.20;99.90;;;;;;5000080;28;20137;-69
2022/09/09 10:54:18;;;;;;;13.73;2.92;;;19.40;99.90;;;;;;4991438;28;20600;-70
2022/09/09 10:56:50;;;;;;;13.52;2.85;;;19.40;99.90;;;;;;4952043;28;20065;-68
2022/09/09 10:59:26;;;;;;;17.33;2.97;;;19.40;99.90;;;;;;4977058;28;20046;-69
2022/09/09 11:01:54;;;;;;;12.32;2.80;;;19.30;99.90;;;;;;4987038;28;20566;-69
2022/09/09 11:04:37;;;;;;;9.10;2.92;;;19.40;99.90;;;;;;4978363;28;20463;-69
2022/09/09 11:07:08;;;;;;;6.50;2.13;;;20.10;99.90;;;;;;4992275;28;20069;-69
2022/09/09 11:09:40;;;;;;;9.70;2.70;;;21.00;99.90;;;;;;4985512;28;20132;-69
2022/09/09 11:12:15;;;;;;;11.93;2.40;;;21.50;99.90;;;;;;4986591;28;20555;-68
2022/09/09 11:14:45;;;;;;;8.85;2.90;;;21.40;99.90;;;;;;4994889;28;20046;-69
2022/09/09 11:17:24;;;;;;;9.65;2.33;;;21.30;99.90;;;;;;4994342;28;20127;-69
2022/09/09 11:19:50;;;;;;;6.65;2.05;;;21.50;99.90;;;;;;4980503;28;20061;-69
2022/09/09 11:22:42;;;;;;;7.03;2.10;;;21.50;99.90;;;;;;4989521;28;20592;-69
2022/09/09 11:25:10;;;;;;;6.82;1.85;;;21.70;99.90;;;;;;4988884;28;20050;-69
2022/09/09 11:28:11;;;;;;;6.80;1.90;;;22.30;99.90;;;;;;4984998;28;20054;-68
2022/09/09 11:31:05;;;;;;;38.15;5.05;;;23.00;99.90;;;;;;4992129;28;20050;-70
2022/09/09 11:33:54;;;;;;;11.45;2.40;;;23.40;99.90;;;;;;4982702;28;20158;-69
2022/09/09 11:36:36;;;;;;;11.80;1.77;;;23.70;99.90;;;;;;4987679;28;20414;-69
2022/09/09 11:39:29;;;;;;;8.38;1.48;;;24.00;99.90;;;;;;4990550;28;20370;-68
2022/09/09 11:42:25;;;;;;;8.52;2.13;;;24.30;99.90;;;;;;4980427;28;20156;-69
2022/09/09 11:44:53;;;;;;;9.23;2.40;;;24.60;99.90;;;;;;4985155;28;20054;-69
2022/09/09 11:47:29;;;;;;;;;;;24.80;99.90;;;;;;4983624;28;20111;-70
2022/09/09 11:50:27;;;;;;;6.97;1.80;;;25.00;98.90;;;;;;4966165;28;19922;-69
2022/09/09 11:53:04;;;;;;;6.60;1.85;;;25.00;99.40;;;;;;4961073;28;20078;-69
2022/09/09 11:55:34;;;;;;;5.85;1.80;;;24.50;99.20;;;;;;4955800;28;20070;-69
2022/09/09 11:58:05;;;;;;;7.68;2.53;;;23.80;99.50;;;;;;4960663;28;20038;-69
2022/09/09 12:00:57;;;;;;;6.53;1.90;;;23.40;99.90;;;;;;4967281;28;20069;-69
2022/09/09 12:03:48;;;;;;;9.10;2.90;;;23.10;99.90;;;;;;4964322;28;20047;-69
2022/09/09 12:06:25;;;;;;;9.88;2.08;;;23.00;99.90;;;;;;4956933;28;20043;-69
2022/09/09 12:08:57;;;;;;;9.20;2.00;;;23.30;99.90;;;;;;4969877;28;20043;-68
2022/09/09 12:11:33;;;;;;;6.97;1.50;;;23.30;99.90;;;;;;4959174;28;20042;-69
2022/09/09 12:14:00;;;;;;;21.83;4.00;;;23.00;99.90;;;;;;4962163;28;20039;-68
2022/09/09 12:16:33;;;;;;;45.53;6.00;;;22.80;99.90;;;;;;4957675;28;20051;-69
2022/09/09 12:19:18;;;;;;;31.48;5.03;;;22.40;99.90;;;;;;4969411;28;20046;-69
2022/09/09 12:22:26;;;;;;;16.50;2.88;;;22.30;99.90;;;;;;4958126;28;20098;-68
2022/09/09 12:25:01;;;;;;;8.48;2.42;;;22.10;99.90;;;;;;4929847;29;20503;-68
2022/09/09 12:28:09;;;;;;;8.30;2.65;;;22.10;99.90;;;;;;4957306;28;20079;-69
2022/09/09 12:30:43;;;;;;;12.18;2.03;;;22.20;99.90;;;;;;4948085;29;20049;-68
2022/09/09 12:33:12;;;;;;;14.05;1.92;;;22.20;99.90;;;;;;4959903;28;20043;-69
2022/09/09 12:35:40;;;;;;;11.80;2.55;;;22.20;99.90;;;;;;4963318;28;20500;-69
2022/09/09 12:38:11;;;;;;;22.25;2.97;;;22.20;99.90;;;;;;4969680;28;20034;-68
2022/09/09 12:40:37;;;;;;;7.93;2.00;;;22.10;99.90;;;;;;4962241;28;20464;-69
2022/09/09 12:43:21;;;;;;;10.65;2.33;;;21.80;99.90;;;;;;4960777;28;20043;-70
2022/09/09 12:45:50;;;;;;;5.80;2.08;;;21.60;99.90;;;;;;4964043;28;20396;-69
2022/09/09 12:48:19;;;;;;;5.63;1.83;;;21.40;99.90;;;;;;4967026;28;20129;-69
2022/09/09 12:50:53;;;;;;;5.65;1.90;;;21.30;99.90;;;;;;4955938;28;20058;-69
2022/09/09 12:53:26;;;;;;;10.52;2.40;;;21.50;99.90;;;;;;4970780;28;20094;-68
2022/09/09 12:56:04;;;;;;;9.18;2.83;;;21.60;99.90;;;;;;4961383;28;20054;-68
2022/09/09 12:58:33;;;;;;;;;;;21.70;99.90;;;;;;4958209;28;20054;-68
2022/09/09 13:01:04;;;;;;;7.70;1.92;;;21.70;99.90;;;;;;4969866;28;19961;-68
2022/09/09 13:03:32;;;;;;;6.53;1.95;;;21.70;99.90;;;;;;4953473;28;20086;-69
2022/09/09 13:06:11;;;;;;;8.18;1.90;;;21.70;99.90;;;;;;4950749;28;20076;-68
2022/09/09 13:08:37;;;;;;;5.72;1.88;;;21.80;99.90;;;;;;4963783;28;20446;-69
2022/09/09 13:11:10;;;;;;;9.70;1.95;;;22.00;99.90;;;;;;4976187;28;20047;-70
2022/09/09 13:13:38;;;;;;;9.43;2.45;;;22.20;99.90;;;;;;4967096;28;20126;-68
2022/09/09 13:16:08;;;;;;;8.45;2.00;;;22.30;99.90;;;;;;4965367;28;20047;-69